createdAt,value
2018-09-01T00:02:12.449Z,82.60
2018-09-01T00:04:40.908Z,82.40
2018-09-01T00:07:09.447Z,82.50
2018-09-01T00:09:37.902Z,82.40
2018-09-01T00:12:07.406Z,82.30
2018-09-01T00:14:36.006Z,82.30
2018-09-01T00:17:05.451Z,82.20
2018-09-01T00:19:34.063Z,82.40
2018-09-01T00:22:02.462Z,83.50
2018-09-01T00:24:30.884Z,82.60
2018-09-01T00:26:59.258Z,82.60
2018-09-01T00:29:27.693Z,82.90
2018-09-01T00:31:56.083Z,82.70
2018-09-01T00:34:24.554Z,83.20
2018-09-01T00:36:52.927Z,83.40
2018-09-01T00:39:21.345Z,82.90
2018-09-01T00:41:50.645Z,82.90
2018-09-01T00:44:19.026Z,82.90
2018-09-01T00:46:47.418Z,82.90
2018-09-01T00:49:15.820Z,83.40
2018-09-01T00:51:44.228Z,82.40
2018-09-01T00:54:12.764Z,82.00
2018-09-01T00:56:41.443Z,81.80
2018-09-01T00:59:09.878Z,81.70
2018-09-01T01:01:38.234Z,81.70
2018-09-01T01:04:06.598Z,81.80
2018-09-01T01:06:34.986Z,81.80
2018-09-01T01:09:03.494Z,82.20
2018-09-01T01:11:31.882Z,82.40
2018-09-01T01:14:00.293Z,81.90
2018-09-01T01:16:28.738Z,81.80
2018-09-01T01:18:57.166Z,81.80
2018-09-01T01:21:25.589Z,82.00
2018-09-01T01:23:54.082Z,82.20
2018-09-01T01:26:22.530Z,82.20
2018-09-01T01:28:51.494Z,82.40
2018-09-01T01:31:20.642Z,82.30
2018-09-01T01:33:50.078Z,82.40
2018-09-01T01:36:18.588Z,82.80
2018-09-01T01:38:47.076Z,83.00
2018-09-01T01:41:15.557Z,83.70
2018-09-01T01:43:43.969Z,83.30
2018-09-01T01:46:12.444Z,83.50
2018-09-01T01:48:40.856Z,83.50
2018-09-01T01:51:09.276Z,83.50
2018-09-01T01:53:37.702Z,83.40
2018-09-01T01:56:06.097Z,83.60
2018-09-01T01:58:34.631Z,83.30
2018-09-01T02:01:03.089Z,83.50
2018-09-01T02:03:31.482Z,83.60
2018-09-01T02:05:59.983Z,83.00
2018-09-01T02:08:28.395Z,83.20
2018-09-01T02:10:56.826Z,83.20
2018-09-01T02:13:25.202Z,83.40
2018-09-01T02:15:53.630Z,83.40
2018-09-01T02:18:22.052Z,83.10
2018-09-01T02:20:50.747Z,83.10
2018-09-01T02:23:19.133Z,83.10
2018-09-01T02:25:47.552Z,83.40
2018-09-01T02:28:15.967Z,83.50
2018-09-01T02:30:44.367Z,83.40
2018-09-01T02:33:12.773Z,83.50
2018-09-01T02:35:41.235Z,84.00
2018-09-01T02:38:09.740Z,84.00
2018-09-01T02:40:38.151Z,84.20
2018-09-01T02:43:06.584Z,84.00
2018-09-01T02:45:35.029Z,84.00
2018-09-01T02:48:03.429Z,84.00
2018-09-01T02:50:31.827Z,84.20
2018-09-01T02:53:00.189Z,84.30
2018-09-01T02:55:28.599Z,84.40
2018-09-01T02:57:57.019Z,84.60
2018-09-01T03:00:30.895Z,84.80
2018-09-01T03:02:59.303Z,84.80
2018-09-01T03:05:27.714Z,84.90
2018-09-01T03:07:56.145Z,85.30
2018-09-01T03:10:24.614Z,85.70
2018-09-01T03:12:52.997Z,85.40
2018-09-01T03:15:21.469Z,85.30
2018-09-01T03:17:50.138Z,85.50
2018-09-01T03:20:19.353Z,85.80
2018-09-01T03:22:47.798Z,85.80
2018-09-01T03:25:16.184Z,86.00
2018-09-01T03:27:44.588Z,86.20
2018-09-01T03:30:13.046Z,86.50
2018-09-01T03:32:41.427Z,87.10
2018-09-01T03:35:09.864Z,87.50
2018-09-01T03:37:38.250Z,87.70
2018-09-01T03:40:07.217Z,87.80
2018-09-01T03:42:35.754Z,87.80
2018-09-01T03:45:04.277Z,87.80
2018-09-01T03:47:32.656Z,88.00
2018-09-01T03:50:01.061Z,88.00
2018-09-01T03:52:29.419Z,88.10
2018-09-01T03:54:57.856Z,87.90
2018-09-01T03:57:26.330Z,88.20
2018-09-01T03:59:54.819Z,88.30
2018-09-01T04:02:23.239Z,88.30
2018-09-01T04:04:51.727Z,87.90
2018-09-01T04:07:20.258Z,87.80
2018-09-01T04:09:49.213Z,87.50
2018-09-01T04:12:17.628Z,87.40
2018-09-01T04:14:46.074Z,87.20
2018-09-01T04:17:14.486Z,87.40
2018-09-01T04:19:42.886Z,87.50
2018-09-01T04:22:11.323Z,87.70
2018-09-01T04:24:39.723Z,87.70
2018-09-01T04:27:08.128Z,87.60
2018-09-01T04:29:36.574Z,87.70
2018-09-01T04:32:04.991Z,87.70
2018-09-01T04:34:33.426Z,87.60
2018-09-01T04:37:01.885Z,87.90
2018-09-01T04:39:30.280Z,88.10
2018-09-01T04:41:58.815Z,88.20
2018-09-01T04:44:27.307Z,88.40
2018-09-01T04:46:55.796Z,88.70
2018-09-01T04:49:24.189Z,88.70
2018-09-01T04:51:52.609Z,88.90
2018-09-01T04:54:21.196Z,88.90
2018-09-01T04:56:50.002Z,88.90
2018-09-01T04:59:18.651Z,88.80
2018-09-01T05:01:47.071Z,88.80
2018-09-01T05:04:15.507Z,88.50
2018-09-01T05:06:43.931Z,88.50
2018-09-01T05:09:12.336Z,88.00
2018-09-01T05:11:41.555Z,87.80
2018-09-01T05:14:10.023Z,87.40
2018-09-01T05:16:38.504Z,87.60
2018-09-01T05:19:13.595Z,87.10
2018-09-01T05:22:12.935Z,87.30
2018-09-01T05:24:41.397Z,87.10
2018-09-01T05:27:09.827Z,86.70
2018-09-01T05:29:38.276Z,87.30
2018-09-01T05:32:06.724Z,87.50
2018-09-01T05:34:35.151Z,87.70
2018-09-01T05:37:03.597Z,87.60
2018-09-01T05:39:31.997Z,88.20
2018-09-01T05:42:00.415Z,88.60
2018-09-01T05:44:28.840Z,88.40
2018-09-01T05:46:57.250Z,88.50
2018-09-01T05:49:25.690Z,88.50
2018-09-01T05:51:54.597Z,88.00
2018-09-01T05:54:25.906Z,88.10
2018-09-01T05:56:54.345Z,88.20
2018-09-01T05:59:23.009Z,88.00
2018-09-01T06:01:51.479Z,87.90
2018-09-01T06:04:20.474Z,88.00
2018-09-01T06:06:49.658Z,88.00
2018-09-01T06:09:18.428Z,87.90
2018-09-01T06:11:46.922Z,87.70
2018-09-01T06:14:15.364Z,87.80
2018-09-01T06:16:43.729Z,87.70
2018-09-01T06:19:12.247Z,87.80
2018-09-01T06:21:40.627Z,88.00
2018-09-01T06:24:09.218Z,88.00
2018-09-01T06:26:37.627Z,87.90
2018-09-01T06:29:10.986Z,87.80
2018-09-01T06:31:42.222Z,87.90
2018-09-01T06:34:10.766Z,88.00
2018-09-01T06:36:39.241Z,88.20
2018-09-01T06:39:08.158Z,87.90
2018-09-01T06:41:36.741Z,87.50
2018-09-01T06:44:05.611Z,87.00
2018-09-01T06:46:33.986Z,86.10
2018-09-01T06:49:02.396Z,86.70
2018-09-01T06:51:30.896Z,85.70
2018-09-01T06:53:59.366Z,85.50
2018-09-01T06:56:27.795Z,85.30
2018-09-01T06:58:56.597Z,85.10
2018-09-01T07:01:25.096Z,85.10
2018-09-01T07:03:53.528Z,84.00
2018-09-01T07:06:21.946Z,82.90
2018-09-01T07:08:50.899Z,83.00
2018-09-01T07:11:19.555Z,82.20
2018-09-01T07:13:48.411Z,81.70
2018-09-01T07:16:16.876Z,81.20
2018-09-01T07:18:45.589Z,81.00
2018-09-01T07:21:13.954Z,80.30
2018-09-01T07:23:42.420Z,80.40
2018-09-01T07:26:10.805Z,80.50
2018-09-01T07:28:39.333Z,80.10
2018-09-01T07:31:08.001Z,79.50
2018-09-01T07:33:36.248Z,78.90
2018-09-01T07:36:04.643Z,79.10
2018-09-01T07:38:33.164Z,77.70
2018-09-01T07:41:01.573Z,77.20
2018-09-01T07:43:30.063Z,77.10
2018-09-01T07:45:58.480Z,76.90
2018-09-01T07:48:26.924Z,76.50
2018-09-01T07:50:55.387Z,76.80
2018-09-01T07:53:23.929Z,76.60
2018-09-01T07:55:52.390Z,75.90
2018-09-01T07:58:21.404Z,74.90
2018-09-01T08:00:50.288Z,74.40
2018-09-01T08:03:19.545Z,74.20
2018-09-01T08:05:48.020Z,74.20
2018-09-01T08:08:16.601Z,74.10
2018-09-01T08:10:45.189Z,74.20
2018-09-01T08:13:13.599Z,73.60
2018-09-01T08:15:42.097Z,73.60
2018-09-01T08:18:10.556Z,72.70
2018-09-01T08:20:39.079Z,72.40
2018-09-01T08:23:07.614Z,71.40
2018-09-01T08:25:36.134Z,71.20
2018-09-01T08:28:10.742Z,70.70
2018-09-01T08:30:39.554Z,70.30
2018-09-01T08:33:08.112Z,70.00
2018-09-01T08:35:36.697Z,69.30
2018-09-01T08:38:05.643Z,68.90
2018-09-01T08:40:34.476Z,67.40
2018-09-01T08:43:03.019Z,66.80
2018-09-01T08:45:31.658Z,66.00
2018-09-01T08:48:00.259Z,65.50
2018-09-01T08:50:29.148Z,64.90
2018-09-01T08:52:58.436Z,64.10
2018-09-01T08:55:27.534Z,63.80
2018-09-01T08:57:56.227Z,63.80
2018-09-01T09:00:25.317Z,63.00
2018-09-01T09:02:54.145Z,62.80
2018-09-01T09:05:23.394Z,62.50
2018-09-01T09:07:52.419Z,61.70
2018-09-01T09:10:21.392Z,61.10
2018-09-01T09:12:52.714Z,60.60
2018-09-01T09:15:22.419Z,60.00
2018-09-01T09:17:51.785Z,59.60
2018-09-01T09:20:21.882Z,59.20
2018-09-01T09:22:50.997Z,58.70
2018-09-01T09:25:20.292Z,59.20
2018-09-01T09:27:49.282Z,59.00
2018-09-01T09:30:19.090Z,58.50
2018-09-01T09:32:48.660Z,57.70
2018-09-01T09:35:18.511Z,57.80
2018-09-01T09:37:47.560Z,57.30
2018-09-01T09:40:16.390Z,56.60
2018-09-01T09:42:45.068Z,56.10
2018-09-01T09:45:18.475Z,55.30
2018-09-01T09:47:48.235Z,54.80
2018-09-01T09:50:17.305Z,54.30
2018-09-01T09:52:46.373Z,54.60
2018-09-01T09:55:15.275Z,53.60
2018-09-01T09:57:44.226Z,54.00
2018-09-01T10:00:13.185Z,52.10
2018-09-01T10:02:42.143Z,52.60
2018-09-01T10:05:10.915Z,52.40
2018-09-01T10:07:39.598Z,52.10
2018-09-01T10:10:08.840Z,52.00
2018-09-01T10:12:38.135Z,51.00
2018-09-01T10:15:07.001Z,50.40
2018-09-01T10:17:35.580Z,50.30
2018-09-01T10:20:04.867Z,51.90
2018-09-01T10:22:33.497Z,52.10
2018-09-01T10:25:02.058Z,52.50
2018-09-01T10:27:31.084Z,52.70
2018-09-01T10:29:59.834Z,52.70
2018-09-01T10:32:28.968Z,52.30
2018-09-01T10:34:57.902Z,53.00
2018-09-01T10:37:27.299Z,53.20
2018-09-01T10:39:56.074Z,52.30
2018-09-01T10:42:24.873Z,52.40
2018-09-01T10:44:53.664Z,51.40
2018-09-01T10:47:22.673Z,50.80
2018-09-01T10:49:51.520Z,49.80
2018-09-01T10:52:20.681Z,48.30
2018-09-01T10:54:49.560Z,46.70
2018-09-01T10:57:18.436Z,46.80
2018-09-01T10:59:48.786Z,46.00
2018-09-01T11:02:17.690Z,45.40
2018-09-01T11:04:46.786Z,44.40
2018-09-01T11:07:15.521Z,44.00
2018-09-01T11:09:44.352Z,43.50
2018-09-01T11:12:13.052Z,44.40
2018-09-01T11:14:41.965Z,44.50
2018-09-01T11:17:10.663Z,44.80
2018-09-01T11:19:39.826Z,44.00
2018-09-01T11:22:08.584Z,41.90
2018-09-01T11:24:37.452Z,41.70
2018-09-01T11:27:06.032Z,40.80
2018-09-01T11:29:43.001Z,40.50
2018-09-01T11:32:11.774Z,38.90
2018-09-01T11:34:40.361Z,37.40
2018-09-01T11:37:09.013Z,36.60
2018-09-01T11:39:37.740Z,37.30
2018-09-01T11:42:06.784Z,39.30
2018-09-01T11:44:35.446Z,40.10
2018-09-01T11:47:04.321Z,39.70
2018-09-01T11:49:32.952Z,39.70
2018-09-01T11:52:01.740Z,40.90
2018-09-01T11:54:30.374Z,42.10
2018-09-01T11:57:00.242Z,40.90
2018-09-01T11:59:29.109Z,39.10
2018-09-01T12:01:57.860Z,39.40
2018-09-01T12:04:26.728Z,40.10
2018-09-01T12:06:55.675Z,41.10
2018-09-01T12:09:24.886Z,40.00
2018-09-01T12:11:53.696Z,39.00
2018-09-01T12:14:22.870Z,36.60
2018-09-01T12:16:52.200Z,35.40
2018-09-01T12:19:21.467Z,34.80
2018-09-01T12:21:50.725Z,34.40
2018-09-01T12:24:20.084Z,35.10
2018-09-01T12:26:50.649Z,36.60
2018-09-01T12:29:19.644Z,37.60
2018-09-01T12:31:48.421Z,38.30
2018-09-01T12:34:17.531Z,38.30
2018-09-01T12:36:46.430Z,37.10
2018-09-01T12:39:15.110Z,37.90
2018-09-01T12:41:43.856Z,36.00
2018-09-01T12:44:15.216Z,34.50
2018-09-01T12:46:44.655Z,32.70
2018-09-01T12:49:13.957Z,31.90
2018-09-01T12:51:44.488Z,32.30
2018-09-01T12:54:13.564Z,33.50
2018-09-01T12:56:42.655Z,33.60
2018-09-01T12:59:12.763Z,34.90
2018-09-01T13:01:45.769Z,35.30
2018-09-01T13:04:15.827Z,35.10
2018-09-01T13:06:44.944Z,35.50
2018-09-01T13:09:13.632Z,34.30
2018-09-01T13:11:43.454Z,33.30
2018-09-01T13:14:13.200Z,30.80
2018-09-01T13:16:42.133Z,29.70
2018-09-01T13:19:10.908Z,28.70
2018-09-01T13:21:40.063Z,28.90
2018-09-01T13:24:12.476Z,28.40
2018-09-01T13:26:42.092Z,28.40
2018-09-01T13:29:11.321Z,30.20
2018-09-01T13:31:40.228Z,31.70
2018-09-01T13:34:09.359Z,32.00
2018-09-01T13:36:38.058Z,31.60
2018-09-01T13:39:07.745Z,31.00
2018-09-01T13:41:36.813Z,32.30
2018-09-01T13:44:05.619Z,33.10
2018-09-01T13:46:34.545Z,31.40
2018-09-01T13:49:03.617Z,30.00
2018-09-01T13:51:33.666Z,29.90
2018-09-01T13:54:02.630Z,29.00
2018-09-01T13:56:32.756Z,28.40
2018-09-01T13:59:01.629Z,27.30
2018-09-01T14:01:31.427Z,27.00
2018-09-01T14:04:00.792Z,26.30
2018-09-01T14:06:29.357Z,25.50
2018-09-01T14:08:58.101Z,25.60
2018-09-01T14:11:27.003Z,25.70
2018-09-01T14:13:55.781Z,26.20
2018-09-01T14:16:25.360Z,26.00
2018-09-01T14:18:54.250Z,25.60
2018-09-01T14:21:23.732Z,26.00
2018-09-01T14:23:52.536Z,25.40
2018-09-01T14:26:21.988Z,24.80
2018-09-01T14:28:50.922Z,25.90
2018-09-01T14:31:19.960Z,26.40
2018-09-01T14:33:49.274Z,26.70
2018-09-01T14:36:18.310Z,26.80
2018-09-01T14:38:47.653Z,27.50
2018-09-01T14:41:16.450Z,27.10
2018-09-01T14:43:45.082Z,28.20
2018-09-01T14:46:14.112Z,28.20
2018-09-01T14:48:42.962Z,27.60
2018-09-01T14:51:11.714Z,27.00
2018-09-01T14:53:40.585Z,27.20
2018-09-01T14:56:09.212Z,27.30
2018-09-01T14:58:37.836Z,28.40
2018-09-01T15:01:06.488Z,28.40
2018-09-01T15:03:36.165Z,28.10
2018-09-01T15:06:05.963Z,26.70
2018-09-01T15:08:35.295Z,25.30
2018-09-01T15:11:06.368Z,26.00
2018-09-01T15:13:36.506Z,25.40
2018-09-01T15:16:05.450Z,24.90
2018-09-01T15:18:34.852Z,24.70
2018-09-01T15:21:03.967Z,25.80
2018-09-01T15:23:33.580Z,26.10
2018-09-01T15:26:02.388Z,24.90
2018-09-01T15:28:31.186Z,24.40
2018-09-01T15:31:01.144Z,24.70
2018-09-01T15:33:29.964Z,24.50
2018-09-01T15:35:58.946Z,24.70
2018-09-01T15:38:28.254Z,25.30
2018-09-01T15:40:56.984Z,24.70
2018-09-01T15:43:26.132Z,24.70
2018-09-01T15:45:55.058Z,26.30
2018-09-01T15:48:24.493Z,28.60
2018-09-01T15:50:53.872Z,28.80
2018-09-01T15:53:22.777Z,28.00
2018-09-01T15:55:51.866Z,27.10
2018-09-01T15:58:20.843Z,26.60
2018-09-01T16:00:50.699Z,26.80
2018-09-01T16:03:20.052Z,27.60
2018-09-01T16:05:49.371Z,27.80
2018-09-01T16:08:19.896Z,28.10
2018-09-01T16:10:49.319Z,27.20
2018-09-01T16:13:19.269Z,28.20
2018-09-01T16:15:49.546Z,29.30
2018-09-01T16:18:19.171Z,28.60
2018-09-01T16:20:48.609Z,27.50
2018-09-01T16:23:18.527Z,26.30
2018-09-01T16:25:47.794Z,26.20
2018-09-01T16:28:16.865Z,27.10
2018-09-01T16:30:46.703Z,26.60
2018-09-01T16:33:15.573Z,26.70
2018-09-01T16:35:44.351Z,26.90
2018-09-01T16:38:13.094Z,26.10
2018-09-01T16:40:41.737Z,26.00
2018-09-01T16:43:10.479Z,25.50
2018-09-01T16:45:39.193Z,25.80
2018-09-01T16:48:07.821Z,25.70
2018-09-01T16:50:36.532Z,26.40
2018-09-01T16:53:05.987Z,26.80
2018-09-01T16:55:34.788Z,26.40
2018-09-01T16:58:03.406Z,26.20
2018-09-01T17:00:32.137Z,26.10
2018-09-01T17:03:00.953Z,25.80
2018-09-01T17:05:29.943Z,26.30
2018-09-01T17:07:58.737Z,26.40
2018-09-01T17:10:27.753Z,26.20
2018-09-01T17:12:57.099Z,26.00
2018-09-01T17:15:28.873Z,26.80
2018-09-01T17:17:57.904Z,27.30
2018-09-01T17:20:26.831Z,27.10
2018-09-01T17:22:55.440Z,27.30
2018-09-01T17:25:24.363Z,27.90
2018-09-01T17:27:53.441Z,27.70
2018-09-01T17:30:22.876Z,28.30
2018-09-01T17:32:51.975Z,28.30
2018-09-01T17:35:21.273Z,28.90
2018-09-01T17:37:50.185Z,29.40
2018-09-01T17:40:19.137Z,29.60
2018-09-01T17:42:48.533Z,30.00
2018-09-01T17:45:17.891Z,30.60
2018-09-01T17:47:47.565Z,30.70
2018-09-01T17:50:16.642Z,32.10
2018-09-01T17:52:45.550Z,33.80
2018-09-01T17:55:16.185Z,35.20
2018-09-01T17:57:45.254Z,36.30
2018-09-01T18:00:15.053Z,37.90
2018-09-01T18:02:46.463Z,37.90
2018-09-01T18:05:15.300Z,38.40
2018-09-01T18:07:44.324Z,38.90
2018-09-01T18:10:13.479Z,39.10
2018-09-01T18:12:42.343Z,39.70
2018-09-01T18:15:11.486Z,40.00
2018-09-01T18:17:40.723Z,40.20
2018-09-01T18:20:09.410Z,40.70
2018-09-01T18:22:38.264Z,41.00
2018-09-01T18:25:07.163Z,41.50
2018-09-01T18:27:36.473Z,41.60
2018-09-01T18:30:05.947Z,42.10
2018-09-01T18:32:45.545Z,42.40
2018-09-01T18:35:14.438Z,42.60
2018-09-01T18:37:43.144Z,43.00
2018-09-01T18:40:16.842Z,43.40
2018-09-01T18:42:45.867Z,43.60
2018-09-01T18:45:14.729Z,43.90
2018-09-01T18:47:43.578Z,44.10
2018-09-01T18:50:12.490Z,44.10
2018-09-01T18:55:20.550Z,44.60
2018-09-01T18:57:48.947Z,44.90
2018-09-01T19:00:17.380Z,45.10
2018-09-01T19:02:45.914Z,45.40
2018-09-01T19:05:14.398Z,45.60
2018-09-01T19:07:42.949Z,45.80
2018-09-01T19:10:11.408Z,45.90
2018-09-01T19:12:39.884Z,46.00
2018-09-01T19:15:08.594Z,46.20
2018-09-01T19:17:37.343Z,46.60
2018-09-01T19:20:05.917Z,46.80
2018-09-01T19:22:34.343Z,47.10
2018-09-01T19:25:02.842Z,47.10
2018-09-01T19:27:31.264Z,47.30
2018-09-01T19:29:59.992Z,47.30
2018-09-01T19:32:28.399Z,47.50
2018-09-01T19:34:57.308Z,47.80
2018-09-01T19:37:25.695Z,47.90
2018-09-01T19:39:54.295Z,48.10
2018-09-01T19:42:22.686Z,48.30
2018-09-01T19:44:51.228Z,48.20
2018-09-01T19:47:19.678Z,48.30
2018-09-01T19:49:48.102Z,48.60
2018-09-01T19:52:16.638Z,48.60
2018-09-01T19:54:45.050Z,48.60
2018-09-01T19:57:13.585Z,48.80
2018-09-01T19:59:42.030Z,49.10
2018-09-01T20:02:10.451Z,49.00
2018-09-01T20:04:39.218Z,49.20
2018-09-01T20:07:07.542Z,49.50
2018-09-01T20:09:35.961Z,49.40
2018-09-01T20:12:04.370Z,49.90
2018-09-01T20:14:32.860Z,49.90
2018-09-01T20:17:01.718Z,49.60
2018-09-01T20:19:30.205Z,49.80
2018-09-01T20:21:58.620Z,50.00
2018-09-01T20:24:27.123Z,50.30
2018-09-01T20:26:55.554Z,50.50
2018-09-01T20:29:24.034Z,50.40
2018-09-01T20:31:52.581Z,50.60
2018-09-01T20:34:21.032Z,50.80
2018-09-01T20:36:49.588Z,51.00
2018-09-01T20:39:19.164Z,51.60
2018-09-01T20:41:47.623Z,51.10
2018-09-01T20:44:16.253Z,52.00
2018-09-01T20:46:45.866Z,51.40
2018-09-01T20:49:14.342Z,51.40
2018-09-01T20:51:42.731Z,51.60
2018-09-01T20:54:11.201Z,51.60
2018-09-01T20:56:39.620Z,51.60
2018-09-01T20:59:08.090Z,51.70
2018-09-01T21:01:36.428Z,52.10
2018-09-01T21:04:04.889Z,52.40
2018-09-01T21:06:33.237Z,52.80
2018-09-01T21:09:01.739Z,52.80
2018-09-01T21:11:30.215Z,52.80
2018-09-01T21:13:58.731Z,53.20
2018-09-01T21:16:27.222Z,53.60
2018-09-01T21:18:55.744Z,53.80
2018-09-01T21:21:24.164Z,53.90
2018-09-01T21:23:52.703Z,54.10
2018-09-01T21:26:21.153Z,54.20
2018-09-01T21:28:49.526Z,54.40
2018-09-01T21:31:17.987Z,54.40
2018-09-01T21:33:46.478Z,54.80
2018-09-01T21:36:14.951Z,55.00
2018-09-01T21:38:43.394Z,55.00
2018-09-01T21:41:11.855Z,55.50
2018-09-01T21:43:40.307Z,55.50
2018-09-01T21:46:08.727Z,55.80
2018-09-01T21:48:37.180Z,55.90
2018-09-01T21:51:05.669Z,55.80
2018-09-01T21:53:34.192Z,55.90
2018-09-01T21:56:02.635Z,56.10
2018-09-01T21:58:31.054Z,56.30
2018-09-01T22:01:04.819Z,56.50
2018-09-01T22:03:33.250Z,56.80
2018-09-01T22:06:01.772Z,56.90
2018-09-01T22:08:30.126Z,57.10
2018-09-01T22:10:58.569Z,57.30
2018-09-01T22:13:26.953Z,57.40
2018-09-01T22:15:55.411Z,57.80
2018-09-01T22:18:23.822Z,58.00
2018-09-01T22:20:52.226Z,58.10
2018-09-01T22:23:20.612Z,58.30
2018-09-01T22:25:49.054Z,59.00
2018-09-01T22:28:17.436Z,58.60
2018-09-01T22:30:46.534Z,58.80
2018-09-01T22:33:14.893Z,59.00
2018-09-01T22:35:43.317Z,59.20
2018-09-01T22:38:18.454Z,59.30
2018-09-01T22:40:46.876Z,59.40
2018-09-01T22:43:15.222Z,59.30
2018-09-01T22:45:43.628Z,59.70
2018-09-01T22:48:12.026Z,59.80
2018-09-01T22:50:40.460Z,60.00
2018-09-01T22:53:08.970Z,60.00
2018-09-01T22:55:37.375Z,60.20
2018-09-01T22:58:05.796Z,60.20
2018-09-01T23:00:34.247Z,60.40
2018-09-01T23:03:02.698Z,60.50
2018-09-01T23:05:31.093Z,60.60
2018-09-01T23:07:59.478Z,60.90
2018-09-01T23:10:27.881Z,61.30
2018-09-01T23:12:56.273Z,61.50
2018-09-01T23:15:24.707Z,61.80
2018-09-01T23:17:53.086Z,61.40
2018-09-01T23:20:21.530Z,62.40
2018-09-01T23:22:50.029Z,62.50
2018-09-01T23:25:18.415Z,62.80
2018-09-01T23:27:46.864Z,62.80
2018-09-01T23:30:15.241Z,63.10
2018-09-01T23:32:43.652Z,63.40
2018-09-01T23:35:12.082Z,63.70
2018-09-01T23:37:40.633Z,63.70
2018-09-01T23:40:09.047Z,63.90
2018-09-01T23:42:37.531Z,64.00
2018-09-01T23:45:05.950Z,64.20
2018-09-01T23:47:34.362Z,64.30
2018-09-01T23:50:02.732Z,64.50
2018-09-01T23:52:31.150Z,64.70
2018-09-01T23:54:59.574Z,64.60
2018-09-01T23:57:27.967Z,64.90
2018-09-01T23:59:56.368Z,65.40
